createdAt,value
2018-09-24T00:01:40.774Z,9.60
2018-09-24T00:05:49.051Z,9.60
2018-09-24T00:09:57.431Z,9.60
2018-09-24T00:14:06.837Z,9.60
2018-09-24T00:18:15.125Z,9.60
2018-09-24T00:22:23.433Z,9.60
2018-09-24T00:26:31.710Z,9.50
2018-09-24T00:30:40.189Z,9.60
2018-09-24T00:34:48.533Z,9.70
2018-09-24T00:38:56.927Z,9.90
2018-09-24T00:43:05.390Z,9.90
2018-09-24T00:47:13.702Z,9.70
2018-09-24T00:51:22.161Z,9.70
2018-09-24T00:55:30.481Z,9.70
2018-09-24T00:59:38.760Z,9.70
2018-09-24T01:03:47.004Z,9.70
2018-09-24T01:07:55.549Z,9.70
2018-09-24T01:12:05.161Z,9.70
2018-09-24T01:16:13.449Z,9.60
2018-09-24T01:20:21.871Z,9.60
2018-09-24T01:28:46.457Z,9.50
2018-09-24T01:32:54.971Z,9.50
2018-09-24T01:37:03.265Z,9.50
2018-09-24T01:41:11.640Z,9.40
2018-09-24T01:45:19.946Z,9.30
2018-09-24T01:49:28.339Z,9.30
2018-09-24T01:53:36.602Z,9.30
2018-09-24T01:57:44.895Z,9.30
2018-09-24T02:01:53.597Z,9.10
2018-09-24T02:06:02.305Z,9.20
2018-09-24T02:10:10.631Z,9.10
2018-09-24T02:14:18.890Z,9.10
2018-09-24T02:18:27.348Z,9.20
2018-09-24T02:22:35.665Z,9.10
2018-09-24T02:26:44.001Z,9.10
2018-09-24T02:30:52.388Z,9.00
2018-09-24T02:35:00.721Z,9.10
2018-09-24T02:39:10.072Z,9.20
2018-09-24T02:43:23.355Z,9.10
2018-09-24T02:47:35.703Z,9.10
2018-09-24T02:51:44.073Z,9.10
2018-09-24T02:55:52.697Z,9.20
2018-09-24T03:00:00.941Z,9.10
2018-09-24T03:04:09.705Z,9.10
2018-09-24T03:08:17.971Z,9.00
2018-09-24T03:12:26.422Z,9.10
2018-09-24T03:16:35.325Z,9.00
2018-09-24T03:20:44.901Z,9.00
2018-09-24T03:24:54.347Z,9.10
2018-09-24T03:29:02.664Z,9.10
2018-09-24T03:33:11.010Z,9.10
2018-09-24T03:37:19.285Z,8.90
2018-09-24T03:45:35.798Z,8.90
2018-09-24T03:49:44.120Z,8.90
2018-09-24T03:53:52.665Z,8.90
2018-09-24T03:58:00.934Z,8.80
2018-09-24T04:02:09.298Z,8.80
2018-09-24T04:06:23.096Z,8.70
2018-09-24T04:10:36.838Z,8.80
2018-09-24T04:14:50.458Z,8.70
2018-09-24T04:19:04.214Z,8.70
2018-09-24T04:23:18.228Z,8.60
2018-09-24T04:27:32.146Z,8.60
2018-09-24T04:31:45.838Z,8.70
2018-09-24T04:35:59.577Z,8.70
2018-09-24T04:40:13.291Z,8.70
2018-09-24T04:44:27.108Z,8.70
2018-09-24T04:48:40.666Z,8.60
2018-09-24T04:52:54.323Z,8.60
2018-09-24T04:57:08.143Z,8.70
2018-09-24T05:01:21.827Z,8.70
2018-09-24T05:05:35.430Z,8.70
2018-09-24T05:09:49.078Z,8.80
2018-09-24T05:14:02.887Z,8.70
2018-09-24T05:18:16.545Z,8.80
2018-09-24T05:22:30.562Z,8.70
2018-09-24T05:26:44.194Z,8.80
2018-09-24T05:30:57.950Z,8.70
2018-09-24T05:35:11.736Z,8.80
2018-09-24T05:39:25.538Z,8.80
2018-09-24T05:43:39.144Z,8.90
2018-09-24T05:47:53.098Z,8.80
2018-09-24T05:52:06.888Z,8.80
2018-09-24T05:56:20.647Z,8.80
2018-09-24T06:00:34.333Z,8.80
2018-09-24T06:04:48.081Z,8.70
2018-09-24T06:09:01.900Z,8.80
2018-09-24T06:13:15.605Z,8.80
2018-09-24T06:17:29.193Z,8.80
2018-09-24T06:21:42.931Z,8.90
2018-09-24T06:25:56.690Z,8.90
2018-09-24T06:30:10.735Z,8.80
2018-09-24T06:34:24.375Z,8.90
2018-09-24T06:38:38.101Z,9.00
2018-09-24T06:42:51.748Z,9.00
2018-09-24T06:47:05.590Z,9.10
2018-09-24T06:51:19.209Z,9.00
2018-09-24T06:55:32.910Z,9.10
2018-09-24T06:59:46.615Z,9.10
2018-09-24T07:04:00.277Z,9.20
2018-09-24T07:08:14.141Z,9.40
2018-09-24T07:12:27.845Z,9.40
2018-09-24T07:16:41.514Z,9.60
2018-09-24T07:25:08.741Z,9.90
2018-09-24T07:29:22.414Z,9.80
2018-09-24T07:33:36.071Z,9.90
2018-09-24T07:37:49.867Z,9.90
2018-09-24T07:42:03.774Z,10.00
2018-09-24T07:46:17.313Z,10.30
2018-09-24T07:50:31.547Z,10.30
2018-09-24T07:54:45.399Z,10.60
2018-09-24T07:58:59.053Z,10.70
2018-09-24T08:03:12.750Z,10.90
2018-09-24T08:07:26.495Z,10.80
2018-09-24T08:11:40.202Z,10.80
2018-09-24T08:15:53.884Z,11.00
2018-09-24T08:20:07.492Z,11.10
2018-09-24T08:24:21.192Z,11.30
2018-09-24T08:28:34.963Z,11.40
2018-09-24T08:32:48.717Z,11.60
2018-09-24T08:37:02.522Z,11.70
2018-09-24T08:41:16.374Z,11.80
2018-09-24T08:45:30.321Z,11.90
2018-09-24T08:49:44.084Z,12.10
2018-09-24T08:53:57.774Z,12.10
2018-09-24T08:58:11.376Z,12.10
2018-09-24T09:02:24.928Z,12.40
2018-09-24T09:06:38.719Z,12.40
2018-09-24T09:10:52.545Z,12.50
2018-09-24T09:15:06.334Z,12.60
2018-09-24T09:19:20.152Z,12.70
2018-09-24T09:23:33.892Z,12.70
2018-09-24T09:27:47.514Z,13.00
2018-09-24T09:32:01.375Z,12.90
2018-09-24T09:36:15.068Z,13.10
2018-09-24T09:40:28.786Z,13.30
2018-09-24T09:44:42.422Z,13.40
2018-09-24T09:48:56.133Z,13.60
2018-09-24T09:53:09.893Z,13.90
2018-09-24T09:57:23.641Z,13.90
2018-09-24T10:01:37.252Z,14.00
2018-09-24T10:05:51.026Z,13.90
2018-09-24T10:10:04.700Z,13.90
2018-09-24T10:14:18.869Z,14.00
2018-09-24T10:18:32.569Z,13.90
2018-09-24T10:22:46.217Z,13.70
2018-09-24T10:26:59.958Z,13.80
2018-09-24T10:31:13.737Z,14.20
2018-09-24T10:35:27.439Z,14.30
2018-09-24T10:39:41.334Z,14.50
2018-09-24T10:43:55.063Z,14.70
2018-09-24T10:48:08.740Z,14.80
2018-09-24T10:52:22.532Z,14.90
2018-09-24T10:56:36.318Z,14.60
2018-09-24T11:00:50.192Z,14.50
2018-09-24T11:05:04.011Z,14.20
2018-09-24T11:09:17.664Z,14.30
2018-09-24T11:13:31.563Z,14.40
2018-09-24T11:17:45.491Z,14.80
2018-09-24T11:21:59.244Z,15.10
2018-09-24T11:26:12.991Z,15.40
2018-09-24T11:30:26.770Z,15.30
2018-09-24T11:34:40.570Z,14.90
2018-09-24T11:38:54.203Z,14.60
2018-09-24T11:43:07.984Z,14.50
2018-09-24T11:51:35.152Z,14.80
2018-09-24T11:55:48.782Z,14.80
2018-09-24T12:00:02.465Z,14.80
2018-09-24T12:04:16.282Z,15.00
2018-09-24T12:08:29.988Z,15.20
2018-09-24T12:12:43.693Z,15.80
2018-09-24T12:16:57.478Z,15.80
2018-09-24T12:21:11.367Z,15.50
2018-09-24T12:25:24.979Z,15.10
2018-09-24T12:29:38.580Z,15.10
2018-09-24T12:33:52.271Z,15.10
2018-09-24T12:38:06.082Z,14.90
2018-09-24T12:42:19.682Z,14.50
2018-09-24T12:46:33.448Z,14.20
2018-09-24T12:50:47.185Z,14.10
2018-09-24T12:55:00.846Z,14.40
2018-09-24T12:59:14.686Z,14.70
2018-09-24T13:03:28.446Z,14.90
2018-09-24T13:07:42.092Z,15.20
2018-09-24T13:11:55.830Z,15.50
2018-09-24T13:16:09.796Z,15.50
2018-09-24T13:20:23.457Z,15.50
2018-09-24T13:24:37.269Z,15.80
2018-09-24T13:28:51.097Z,15.70
2018-09-24T13:33:04.858Z,15.60
2018-09-24T13:37:18.636Z,16.00
2018-09-24T13:41:32.400Z,16.10
2018-09-24T13:45:46.153Z,15.90
2018-09-24T13:49:59.934Z,15.90
2018-09-24T13:54:13.640Z,15.50
2018-09-24T13:58:27.407Z,15.30
2018-09-24T14:02:41.223Z,15.10
2018-09-24T14:06:54.969Z,15.40
2018-09-24T14:11:08.553Z,15.60
2018-09-24T14:15:22.177Z,15.40
2018-09-24T14:19:35.956Z,15.40
2018-09-24T14:23:49.789Z,15.20
2018-09-24T14:28:03.426Z,15.10
2018-09-24T14:32:17.092Z,15.20
2018-09-24T14:36:30.710Z,15.10
2018-09-24T14:40:44.352Z,15.30
2018-09-24T14:44:58.039Z,15.60
2018-09-24T14:49:11.738Z,16.00
2018-09-24T14:53:25.335Z,15.80
2018-09-24T14:57:39.005Z,15.60
2018-09-24T15:01:52.958Z,14.60
2018-09-24T15:06:06.581Z,14.30
2018-09-24T15:10:20.233Z,14.10
2018-09-24T15:14:33.781Z,14.30
2018-09-24T15:18:47.377Z,14.30
2018-09-24T15:23:00.829Z,14.10
2018-09-24T15:27:14.450Z,14.20
2018-09-24T15:31:28.288Z,14.30
2018-09-24T15:35:42.161Z,14.50
2018-09-24T15:39:55.845Z,14.50
2018-09-24T15:44:09.709Z,14.60
2018-09-24T15:48:23.456Z,14.60
2018-09-24T15:52:37.176Z,14.70
2018-09-24T15:56:50.896Z,14.90
2018-09-24T16:01:04.501Z,15.10
2018-09-24T16:05:18.300Z,15.10
2018-09-24T16:09:32.070Z,15.00
2018-09-24T16:13:45.880Z,14.80
2018-09-24T16:17:59.645Z,14.80
2018-09-24T16:22:13.200Z,14.60
2018-09-24T16:26:26.966Z,14.50
2018-09-24T16:30:40.723Z,14.30
2018-09-24T16:34:54.556Z,14.30
2018-09-24T16:39:08.168Z,14.10
2018-09-24T16:43:21.878Z,14.10
2018-09-24T16:47:35.562Z,13.90
2018-09-24T16:51:49.300Z,13.70
2018-09-24T16:56:03.178Z,13.60
2018-09-24T17:00:16.952Z,13.70
2018-09-24T17:04:30.646Z,13.50
2018-09-24T17:08:44.264Z,13.50
2018-09-24T17:12:57.993Z,13.50
2018-09-24T17:17:11.861Z,13.30
2018-09-24T17:21:25.557Z,13.20
2018-09-24T17:25:39.337Z,13.10
2018-09-24T17:29:53.277Z,13.00
2018-09-24T17:34:07.058Z,13.00
2018-09-24T17:38:20.823Z,13.10
2018-09-24T17:42:34.460Z,13.10
2018-09-24T17:46:48.309Z,12.90
2018-09-24T17:51:02.079Z,12.80
2018-09-24T17:55:15.757Z,12.80
2018-09-24T17:59:29.455Z,12.80
2018-09-24T18:03:43.221Z,12.90
2018-09-24T18:07:56.848Z,12.80
2018-09-24T18:12:10.578Z,12.70
2018-09-24T18:16:24.325Z,12.70
2018-09-24T18:20:38.049Z,12.50
2018-09-24T18:24:52.578Z,12.60
2018-09-24T18:29:06.277Z,12.40
2018-09-24T18:33:21.176Z,12.40
2018-09-24T18:37:37.108Z,12.40
2018-09-24T18:41:50.795Z,12.30
2018-09-24T18:46:04.323Z,12.50
2018-09-24T18:50:18.196Z,12.50
2018-09-24T18:54:31.899Z,12.40
2018-09-24T18:58:45.658Z,12.40
2018-09-24T19:02:59.327Z,12.20
2018-09-24T19:07:12.934Z,12.40
2018-09-24T19:11:27.967Z,12.40
2018-09-24T19:15:40.651Z,12.40
2018-09-24T19:19:54.350Z,12.40
2018-09-24T19:24:08.042Z,12.30
2018-09-24T19:28:21.762Z,12.40
2018-09-24T19:32:35.581Z,12.30
2018-09-24T19:36:49.385Z,12.20
2018-09-24T19:41:02.918Z,12.20
2018-09-24T19:45:16.568Z,12.10
2018-09-24T19:49:30.362Z,11.90
2018-09-24T19:53:44.107Z,12.00
2018-09-24T20:02:11.422Z,11.90
2018-09-24T20:06:25.553Z,11.80
2018-09-24T20:10:40.550Z,11.80
2018-09-24T20:14:54.333Z,11.80
2018-09-24T20:19:11.422Z,11.80
2018-09-24T20:23:25.077Z,11.70
2018-09-24T20:27:38.796Z,11.70
2018-09-24T20:31:52.513Z,11.80
2018-09-24T20:36:06.399Z,11.60
2018-09-24T20:40:20.129Z,11.60
2018-09-24T20:44:33.801Z,11.70
2018-09-24T20:48:47.593Z,11.70
2018-09-24T20:53:01.406Z,11.60
2018-09-24T20:57:15.255Z,11.60
2018-09-24T21:01:29.025Z,11.70
2018-09-24T21:05:42.699Z,11.60
2018-09-24T21:09:56.389Z,11.50
2018-09-24T21:18:23.660Z,11.30
2018-09-24T21:22:37.316Z,11.30
2018-09-24T21:26:50.872Z,11.30
2018-09-24T21:31:04.686Z,11.20
2018-09-24T21:35:18.551Z,11.20
2018-09-24T21:39:32.238Z,11.30
2018-09-24T21:43:46.128Z,11.20
2018-09-24T21:47:59.934Z,11.00
2018-09-24T21:52:13.632Z,10.90
2018-09-24T21:56:27.330Z,10.90
2018-09-24T22:00:41.146Z,10.90
2018-09-24T22:04:55.077Z,10.90
2018-09-24T22:09:08.971Z,10.90
2018-09-24T22:13:22.809Z,10.90
2018-09-24T22:17:36.982Z,10.80
2018-09-24T22:21:50.770Z,10.80
2018-09-24T22:26:04.441Z,10.80
2018-09-24T22:30:18.127Z,10.80
2018-09-24T22:34:31.834Z,10.80
2018-09-24T22:38:45.634Z,10.70
2018-09-24T22:42:59.372Z,10.60
2018-09-24T22:47:13.217Z,10.40
2018-09-24T22:51:26.858Z,10.40
2018-09-24T22:55:40.750Z,10.30
2018-09-24T22:59:54.546Z,10.30
2018-09-24T23:04:08.175Z,10.30
2018-09-24T23:08:21.874Z,10.20
2018-09-24T23:12:35.669Z,10.00
2018-09-24T23:16:49.575Z,10.00
2018-09-24T23:21:03.409Z,10.00
2018-09-24T23:25:17.167Z,10.00
2018-09-24T23:29:30.775Z,9.90
2018-09-24T23:33:44.733Z,10.00
2018-09-24T23:37:58.610Z,9.90
2018-09-24T23:42:12.263Z,9.90
2018-09-24T23:46:25.821Z,9.80
2018-09-24T23:50:39.671Z,9.80
2018-09-24T23:54:53.254Z,9.70
2018-09-24T23:59:06.973Z,9.70
